Terminal Aerodrome Forecast
Issued by NWS Cheyenne, WY

Home | Current Version | Previous Version | Text Only | Print | Product List | Glossary On
Versions: 1 2 3 4 5 6 7 8 9 10 11 12 13 14 15 16 17
000
FTUS45 KCYS 272320
TAFCYS
TAF
KCYS 272320Z 2800/2824 17009KT P6SM SCT020 OVC050
     FM280300 15008KT 6SM -SHRA SCT007 OVC020
     FM280600 17010KT 3SM -RA SCT003 OVC007
     FM281200 16012KT 3/4SM -RASN OVC003
     FM282100 09011KT 3/4SM -SN OVC003=

USA.gov is the U.S. government's official web portal to all federal, state and local government web resources and services.